Time;durP1;ratioP1;P1;durP2;ratioP2;P2;SDS_P1;SDS_P2;PMS_P1;PMS_P2;Temp;Humidity;BMP_temperature;BMP_pressure;BME280_temperature;BME280_humidity;BME280_pressure;Samples;Min_cycle;Max_cycle;Signal;HPM_P1;HPM_P2
2023/03/13 00:01:53;;;;;;;14.27;8.70;;;;;;;;;;10363153;28;20041;-80
2023/03/13 00:06:54;;;;;;;16.70;9.57;;;;;;;;;;10360772;28;20053;-81
2023/03/13 00:11:55;;;;;;;16.87;9.17;;;;;;;;;;10362864;28;20034;-80
2023/03/13 00:16:58;;;;;;;22.07;10.30;;;;;;;;;;10361181;28;20490;-81
2023/03/13 00:21:59;;;;;;;18.87;10.90;;;;;;;;;;10361363;28;20045;-81
2023/03/13 00:27:02;;;;;;;18.03;9.73;;;;;;;;;;10361395;28;20038;-82
2023/03/13 00:32:03;;;;;;;16.63;9.77;;;;;;;;;;10361199;28;20061;-81
2023/03/13 00:37:04;;;;;;;21.97;11.33;;;;;;;;;;10362324;28;20112;-81
2023/03/13 00:42:05;;;;;;;18.40;11.10;;;;;;;;;;10362596;28;20075;-80
2023/03/13 00:47:06;;;;;;;24.33;13.47;;;;;;;;;;10362142;28;20069;-82
2023/03/13 00:52:07;;;;;;;21.80;11.83;;;;;;;;;;10361994;28;20033;-81
2023/03/13 00:57:08;;;;;;;16.93;10.13;;;;;;;;;;10360223;28;20037;-81
2023/03/13 01:02:09;;;;;;;15.03;8.67;;;;;;;;;;10361788;28;20583;-81
2023/03/13 01:07:10;;;;;;;12.37;6.57;;;;;;;;;;10359947;28;20056;-83
2023/03/13 01:12:11;;;;;;;12.37;7.20;;;;;;;;;;10361833;28;20037;-81
2023/03/13 01:17:12;;;;;;;12.60;6.90;;;;;;;;;;10360453;28;20053;-81
2023/03/13 01:22:13;;;;;;;15.90;8.63;;;;;;;;;;10361264;28;20632;-81
2023/03/13 01:27:14;;;;;;;18.83;10.90;;;;;;;;;;10361311;28;20038;-80
2023/03/13 01:32:15;;;;;;;20.30;10.90;;;;;;;;;;10359706;28;20021;-81
2023/03/13 01:37:16;;;;;;;18.83;11.83;;;;;;;;;;10361605;28;20045;-83
2023/03/13 01:42:17;;;;;;;18.63;11.33;;;;;;;;;;10361103;28;20780;-80
2023/03/13 01:47:18;;;;;;;19.60;10.13;;;;;;;;;;10361308;28;20041;-81
2023/03/13 01:52:21;;;;;;;14.67;8.33;;;;;;;;;;10361458;28;20026;-81
2023/03/13 01:57:28;;;;;;;18.87;10.90;;;;;;;;;;10360036;28;20128;-81
2023/03/13 02:02:30;;;;;;;19.87;11.10;;;;;;;;;;10360729;28;20108;-79
2023/03/13 02:07:34;;;;;;;18.43;10.77;;;;;;;;;;10359708;28;20057;-79
2023/03/13 02:12:37;;;;;;;19.73;12.13;;;;;;;;;;10360880;28;20026;-80
2023/03/13 02:17:39;;;;;;;17.30;11.17;;;;;;;;;;10358750;28;20167;-82
2023/03/13 02:22:43;;;;;;;18.43;11.30;;;;;;;;;;10359448;28;20025;-80
2023/03/13 02:27:45;;;;;;;16.13;10.87;;;;;;;;;;10364993;28;20037;-80
2023/03/13 02:32:46;;;;;;;20.20;11.97;;;;;;;;;;10366710;28;20035;-81
2023/03/13 02:37:52;;;;;;;17.77;11.43;;;;;;;;;;10366716;28;20038;-81
2023/03/13 02:42:53;;;;;;;;;;;;;;;;;;10367262;28;20474;-82
2023/03/13 02:47:54;;;;;;;17.23;10.97;;;;;;;;;;10366823;28;19917;-81
2023/03/13 02:52:56;;;;;;;19.27;12.20;;;;;;;;;;10365846;28;20477;-80
2023/03/13 02:57:57;;;;;;;19.57;11.93;;;;;;;;;;10365733;28;20512;-81
2023/03/13 03:02:58;;;;;;;21.33;13.23;;;;;;;;;;10365913;28;20034;-79
2023/03/13 03:07:59;;;;;;;20.33;12.47;;;;;;;;;;10365332;28;20359;-79
2023/03/13 03:13:00;;;;;;;22.73;12.67;;;;;;;;;;10365629;28;20018;-83
2023/03/13 03:18:01;;;;;;;20.10;12.33;;;;;;;;;;10365413;28;20057;-80
2023/03/13 03:23:03;;;;;;;21.43;13.13;;;;;;;;;;10364757;28;20545;-80
2023/03/13 03:28:04;;;;;;;20.40;13.37;;;;;;;;;;10365404;28;20038;-82
2023/03/13 03:33:05;;;;;;;20.77;13.67;;;;;;;;;;10364711;28;20025;-80
2023/03/13 03:38:06;;;;;;;21.00;13.80;;;;;;;;;;10358051;28;20823;-81
2023/03/13 03:43:07;;;;;;;21.63;13.23;;;;;;;;;;10364723;28;20042;-79
2023/03/13 03:48:08;;;;;;;21.87;13.50;;;;;;;;;;10364128;28;20050;-82
2023/03/13 03:53:09;;;;;;;21.97;12.90;;;;;;;;;;10363685;28;20035;-81
2023/03/13 03:58:10;;;;;;;20.80;13.03;;;;;;;;;;10363155;28;20048;-79
2023/03/13 04:03:12;;;;;;;21.97;13.20;;;;;;;;;;10360749;28;20426;-80
2023/03/13 04:08:13;;;;;;;23.57;12.53;;;;;;;;;;10362650;28;20060;-80
2023/03/13 04:13:14;;;;;;;15.00;9.30;;;;;;;;;;10363138;28;20084;-80
2023/03/13 04:18:15;;;;;;;14.23;8.80;;;;;;;;;;10363293;28;20041;-80
2023/03/13 04:23:16;;;;;;;15.03;8.50;;;;;;;;;;10360928;28;20417;-78
2023/03/13 04:28:17;;;;;;;16.17;8.97;;;;;;;;;;10361974;28;20046;-81
2023/03/13 04:33:18;;;;;;;14.77;9.27;;;;;;;;;;10362174;28;20091;-79
2023/03/13 04:38:19;;;;;;;13.70;8.60;;;;;;;;;;10362398;28;20030;-83
2023/03/13 04:43:20;;;;;;;15.20;8.17;;;;;;;;;;10362298;28;20087;-81
2023/03/13 04:48:21;;;;;;;18.23;9.00;;;;;;;;;;10360673;28;20046;-80
2023/03/13 04:53:22;;;;;;;18.93;9.80;;;;;;;;;;10360114;28;20030;-82
2023/03/13 04:58:23;;;;;;;19.40;10.50;;;;;;;;;;10361326;28;20025;-80
2023/03/13 05:03:24;;;;;;;25.63;12.63;;;;;;;;;;10361196;28;20554;-81
2023/03/13 05:08:25;;;;;;;23.07;12.20;;;;;;;;;;10354695;28;20046;-79
2023/03/13 05:13:26;;;;;;;22.97;12.83;;;;;;;;;;10361743;28;20091;-80
2023/03/13 05:18:27;;;;;;;23.77;10.77;;;;;;;;;;10361505;28;20673;-79
2023/03/13 05:23:28;;;;;;;19.13;10.10;;;;;;;;;;10359854;28;20065;-81
2023/03/13 05:28:29;;;;;;;22.97;10.07;;;;;;;;;;10358954;28;20132;-81
2023/03/13 05:33:30;;;;;;;19.13;11.80;;;;;;;;;;10359566;28;20390;-80
2023/03/13 05:38:31;;;;;;;20.90;10.43;;;;;;;;;;10359825;28;20024;-81
2023/03/13 05:43:32;;;;;;;16.93;9.27;;;;;;;;;;10361458;28;20026;-85
2023/03/13 05:48:33;;;;;;;17.57;9.27;;;;;;;;;;10360836;28;20556;-84
2023/03/13 05:53:34;;;;;;;18.23;9.70;;;;;;;;;;10360492;28;20017;-80
2023/03/13 05:58:36;;;;;;;15.77;8.80;;;;;;;;;;10360368;28;20042;-80
2023/03/13 06:03:37;;;;;;;25.43;12.90;;;;;;;;;;10368636;28;20105;-80
2023/03/13 06:08:38;;;;;;;21.77;12.23;;;;;;;;;;10367996;28;20042;-80
2023/03/13 06:13:39;;;;;;;15.77;8.33;;;;;;;;;;10366186;28;20769;-80
2023/03/13 06:18:40;;;;;;;35.20;20.57;;;;;;;;;;10366277;28;20054;-80
2023/03/13 06:23:41;;;;;;;39.77;17.40;;;;;;;;;;10364866;28;20885;-80
2023/03/13 06:28:42;;;;;;;49.90;23.47;;;;;;;;;;10365131;28;20037;-80
2023/03/13 06:33:43;;;;;;;37.67;20.00;;;;;;;;;;10364925;28;20085;-80
2023/03/13 06:38:44;;;;;;;31.30;16.37;;;;;;;;;;10364830;28;20032;-80
2023/03/13 06:43:45;;;;;;;54.73;19.70;;;;;;;;;;10364663;28;20104;-80
2023/03/13 06:48:46;;;;;;;48.50;19.07;;;;;;;;;;10364000;28;20440;-80
2023/03/13 06:53:48;;;;;;;37.17;16.33;;;;;;;;;;10364503;28;20036;-85
2023/03/13 06:58:49;;;;;;;36.73;16.70;;;;;;;;;;10363911;28;20683;-80
2023/03/13 07:03:50;;;;;;;30.17;13.23;;;;;;;;;;10363751;28;20537;-80
2023/03/13 07:08:51;;;;;;;41.80;16.43;;;;;;;;;;10363847;28;20103;-82
2023/03/13 07:13:55;;;;;;;25.93;12.50;;;;;;;;;;10363307;28;20041;-80
2023/03/13 07:21:28;;;;;;;37.13;16.70;;;;;;;;;;10479586;28;20387;-80
2023/03/13 07:26:29;;;;;;;27.73;12.77;;;;;;;;;;10466870;28;20025;-82
2023/03/13 07:31:32;;;;;;;86.30;38.33;;;;;;;;;;10478237;28;20112;-80
2023/03/13 07:36:34;;;;;;;27.13;10.70;;;;;;;;;;10478355;28;20035;-80
2023/03/13 07:41:35;;;;;;;25.80;10.17;;;;;;;;;;10479753;28;20032;-81
2023/03/13 07:46:36;;;;;;;31.90;13.27;;;;;;;;;;10465639;28;20031;-81
2023/03/13 07:51:37;;;;;;;44.67;15.57;;;;;;;;;;10478823;28;20388;-82
2023/03/13 07:56:38;;;;;;;25.23;10.03;;;;;;;;;;10477952;28;20032;-79
2023/03/13 08:01:39;;;;;;;21.00;8.77;;;;;;;;;;10477846;28;20036;-80
2023/03/13 08:06:40;;;;;;;21.70;8.67;;;;;;;;;;10477317;28;20060;-80
2023/03/13 08:11:43;;;;;;;26.77;10.10;;;;;;;;;;10477917;28;20437;-81
2023/03/13 08:16:44;;;;;;;44.25;14.80;;;;;;;;;;10475472;28;20068;-81
2023/03/13 08:21:45;;;;;;;25.63;9.93;;;;;;;;;;10477192;28;20037;-82
2023/03/13 08:26:46;;;;;;;26.88;9.68;;;;;;;;;;10476794;28;20449;-79
2023/03/13 08:31:48;;;;;;;19.17;8.88;;;;;;;;;;10455085;28;20120;-80
2023/03/13 08:36:49;;;;;;;15.63;6.38;;;;;;;;;;10449245;28;20409;-80
2023/03/13 08:41:50;;;;;;;23.13;9.05;;;;;;;;;;10449079;28;20071;-80
2023/03/13 08:46:51;;;;;;;19.40;7.35;;;;;;;;;;10449167;28;20553;-80
2023/03/13 08:51:52;;;;;;;16.58;7.07;;;;;;;;;;10448634;28;20636;-80
2023/03/13 08:56:53;;;;;;;18.83;7.95;;;;;;;;;;10447017;28;20032;-78
2023/03/13 09:01:54;;;;;;;19.65;7.68;;;;;;;;;;10448440;28;20080;-84
2023/03/13 09:06:55;;;;;;;18.77;7.22;;;;;;;;;;10448153;28;20053;-82
2023/03/13 09:11:56;;;;;;;21.75;9.43;;;;;;;;;;10447877;28;20025;-80
2023/03/13 09:16:58;;;;;;;15.10;6.03;;;;;;;;;;10447227;28;20060;-79
2023/03/13 09:21:59;;;;;;;14.07;5.38;;;;;;;;;;10447653;28;20388;-82
2023/03/13 09:27:00;;;;;;;18.67;6.05;;;;;;;;;;10446332;28;20045;-82
2023/03/13 09:32:01;;;;;;;12.48;5.20;;;;;;;;;;10446989;28;20543;-80
2023/03/13 09:37:02;;;;;;;13.30;5.93;;;;;;;;;;10447031;28;20374;-80
2023/03/13 09:42:13;;;;;;;13.35;5.82;;;;;;;;;;10445269;28;20033;-82
2023/03/13 09:47:19;;;;;;;12.55;4.82;;;;;;;;;;10446643;28;20025;-81
2023/03/13 09:52:24;;;;;;;14.20;5.13;;;;;;;;;;10445706;28;20229;-79
2023/03/13 09:57:33;;;;;;;15.03;4.53;;;;;;;;;;10446094;28;20044;-80
2023/03/13 10:02:35;;;;;;;12.75;4.65;;;;;;;;;;10443514;28;20321;-81
2023/03/13 10:07:36;;;;;;;9.23;3.80;;;;;;;;;;10433959;28;20021;-80
2023/03/13 10:12:44;;;;;;;9.90;4.07;;;;;;;;;;10443161;28;20096;-84
2023/03/13 10:17:45;;;;;;;9.20;4.00;;;;;;;;;;10438377;28;20053;-82
2023/03/13 10:22:47;;;;;;;6.07;2.88;;;;;;;;;;10438144;28;20031;-82
2023/03/13 10:27:49;;;;;;;31.50;18.23;;;;;;;;;;10444021;28;20033;-80
2023/03/13 10:32:51;;;;;;;15.32;8.88;;;;;;;;;;10444443;28;20600;-83
2023/03/13 10:38:02;;;;;;;9.27;2.72;;;;;;;;;;10444099;28;20043;-83
2023/03/13 10:43:04;;;;;;;7.32;3.00;;;;;;;;;;10444304;28;20025;-80
2023/03/13 10:48:18;;;;;;;10.95;3.78;;;;;;;;;;10431022;28;20464;-79
2023/03/13 10:53:21;;;;;;;6.47;2.88;;;;;;;;;;10443826;28;20025;-81
2023/03/13 10:58:46;;;;;;;10.90;2.65;;;;;;;;;;10443937;28;20017;-82
2023/03/13 11:03:48;;;;;;;6.47;2.60;;;;;;;;;;10440926;28;20037;-81
2023/03/13 11:08:49;;;;;;;9.50;3.10;;;;;;;;;;10444334;28;20029;-80
2023/03/13 11:13:50;;;;;;;14.23;5.18;;;;;;;;;;10443099;28;20021;-82
2023/03/13 11:18:57;;;;;;;13.80;4.80;;;;;;;;;;10402709;28;20776;-82
2023/03/13 11:24:00;;;;;;;7.95;2.97;;;;;;;;;;10422570;28;20086;-79
2023/03/13 11:29:10;;;;;;;12.60;4.30;;;;;;;;;;10415168;28;20030;-80
2023/03/13 11:34:17;;;;;;;35.42;15.98;;;;;;;;;;10436766;28;20032;-81
2023/03/13 11:39:36;;;;;;;76.03;36.75;;;;;;;;;;10417699;28;20033;-80
2023/03/13 11:44:55;;;;;;;38.42;14.25;;;;;;;;;;10407232;28;20741;-78
2023/03/13 11:50:18;;;;;;;39.78;13.85;;;;;;;;;;10417412;28;20048;-82
2023/03/13 11:55:29;;;;;;;11.32;3.85;;;;;;;;;;10427268;28;20037;-82
2023/03/13 12:00:36;;;;;;;8.75;3.40;;;;;;;;;;10408715;28;20124;-81
2023/03/13 12:05:45;;;;;;;39.40;14.23;;;;;;;;;;10435401;28;20036;-82
2023/03/13 12:11:00;;;;;;;31.48;12.82;;;;;;;;;;10430661;28;20038;-80
2023/03/13 12:16:06;;;;;;;27.77;10.38;;;;;;;;;;10416638;28;20034;-80
2023/03/13 12:21:22;;;;;;;18.88;6.63;;;;;;;;;;10449277;28;20080;-80
2023/03/13 12:26:33;;;;;;;18.15;5.63;;;;;;;;;;10449145;28;20117;-80
2023/03/13 12:31:34;;;;;;;15.30;5.35;;;;;;;;;;10433726;28;20025;-79
2023/03/13 12:36:38;;;;;;;13.68;5.40;;;;;;;;;;10431262;28;20479;-80
2023/03/13 12:41:42;;;;;;;12.68;5.57;;;;;;;;;;10419236;28;20033;-79
2023/03/13 12:46:47;;;;;;;11.27;5.05;;;;;;;;;;10420999;28;20110;-79
2023/03/13 12:52:07;;;;;;;9.88;3.88;;;;;;;;;;10400604;28;20037;-83
2023/03/13 12:57:08;;;;;;;21.83;10.48;;;;;;;;;;10420319;28;20484;-81
2023/03/13 13:02:28;;;;;;;11.40;4.72;;;;;;;;;;10414143;28;20042;-81
2023/03/13 13:07:29;;;;;;;19.05;7.28;;;;;;;;;;10409227;28;20405;-81
2023/03/13 13:12:30;;;;;;;27.00;9.82;;;;;;;;;;10415029;28;20048;-80
2023/03/13 13:17:35;;;;;;;8.23;4.00;;;;;;;;;;10390918;28;20053;-81
2023/03/13 13:22:36;;;;;;;12.00;5.38;;;;;;;;;;10388168;28;20100;-82
2023/03/13 13:27:37;;;;;;;15.05;5.80;;;;;;;;;;10408558;28;20025;-81
2023/03/13 13:32:39;;;;;;;12.77;5.57;;;;;;;;;;10423658;28;20134;-80
2023/03/13 13:37:40;;;;;;;13.40;6.25;;;;;;;;;;10410436;28;20041;-84
2023/03/13 13:43:01;;;;;;;11.23;5.80;;;;;;;;;;10417174;28;20378;-80
2023/03/13 13:48:21;;;;;;;12.13;6.05;;;;;;;;;;10411134;28;20686;-80
2023/03/13 13:53:33;;;;;;;8.88;5.25;;;;;;;;;;10393477;28;20078;-82
2023/03/13 13:58:38;;;;;;;11.32;5.70;;;;;;;;;;10423906;28;20099;-82
2023/03/13 14:03:41;;;;;;;15.23;6.68;;;;;;;;;;10413050;28;20029;-80
2023/03/13 14:08:44;;;;;;;10.55;6.25;;;;;;;;;;10436504;28;20554;-82
2023/03/13 14:13:44;;;;;;;8.70;6.28;;;;;;;;;;10427925;28;20531;-83
2023/03/13 14:18:46;;;;;;;14.43;7.72;;;;;;;;;;10434041;28;20061;-84
2023/03/13 14:23:47;;;;;;;16.60;8.05;;;;;;;;;;10398796;28;20087;-82
2023/03/13 14:28:49;;;;;;;15.00;7.20;;;;;;;;;;10414155;28;20083;-84
2023/03/13 14:33:51;;;;;;;32.97;20.58;;;;;;;;;;10433815;28;20039;-85
2023/03/13 14:38:53;;;;;;;28.48;12.85;;;;;;;;;;10433314;28;20041;-83
2023/03/13 14:43:55;;;;;;;31.17;13.13;;;;;;;;;;10425415;28;20440;-82
2023/03/13 14:48:56;;;;;;;66.70;15.10;;;;;;;;;;10422954;28;20079;-85
2023/03/13 14:53:58;;;;;;;42.03;16.67;;;;;;;;;;10434469;28;20033;-83
2023/03/13 14:59:32;;;;;;;53.55;21.02;;;;;;;;;;10427548;28;20136;-83
2023/03/13 15:04:48;;;;;;;51.83;20.98;;;;;;;;;;10390521;28;20052;-82
2023/03/13 15:09:49;;;;;;;59.13;22.67;;;;;;;;;;10395677;28;20033;-84
2023/03/13 15:14:51;;;;;;;33.55;13.82;;;;;;;;;;10434028;28;20030;-82
2023/03/13 15:19:54;;;;;;;64.85;27.75;;;;;;;;;;10434201;28;20056;-81
2023/03/13 15:24:55;;;;;;;61.85;22.38;;;;;;;;;;10441842;28;20154;-81
2023/03/13 15:29:56;;;;;;;60.13;22.10;;;;;;;;;;10439467;28;20025;-80
2023/03/13 15:35:00;;;;;;;49.22;19.52;;;;;;;;;;10429139;28;20062;-81
2023/03/13 15:40:06;;;;;;;42.50;17.48;;;;;;;;;;10444670;28;20049;-79
2023/03/13 15:45:07;;;;;;;36.58;16.10;;;;;;;;;;10428864;28;20581;-81
2023/03/13 15:50:12;;;;;;;26.80;12.07;;;;;;;;;;10428505;28;20037;-80
2023/03/13 15:55:13;;;;;;;26.77;11.43;;;;;;;;;;10443035;28;20069;-80
2023/03/13 16:00:22;;;;;;;33.83;16.13;;;;;;;;;;10433368;28;20151;-80
2023/03/13 16:05:23;;;;;;;29.27;14.68;;;;;;;;;;10428905;28;20033;-82
2023/03/13 16:10:27;;;;;;;40.05;17.95;;;;;;;;;;10439871;28;20555;-82
2023/03/13 16:15:28;;;;;;;27.13;12.30;;;;;;;;;;10448845;28;20150;-80
2023/03/13 16:20:30;;;;;;;22.40;9.70;;;;;;;;;;10446250;28;20136;-82
2023/03/13 16:25:31;;;;;;;28.38;13.07;;;;;;;;;;10447712;28;20029;-82
2023/03/13 16:30:32;;;;;;;46.92;23.73;;;;;;;;;;10423033;28;20563;-79
2023/03/13 16:35:33;;;;;;;41.65;19.60;;;;;;;;;;10415232;28;20066;-79
2023/03/13 16:40:35;;;;;;;24.00;12.80;;;;;;;;;;10414665;28;20095;-79
2023/03/13 16:45:36;;;;;;;31.42;15.98;;;;;;;;;;10416752;28;21513;-79
2023/03/13 16:50:37;;;;;;;30.25;15.27;;;;;;;;;;10393733;28;20047;-81
2023/03/13 16:55:38;;;;;;;22.90;10.98;;;;;;;;;;10395140;28;20036;-81
2023/03/13 17:00:40;;;;;;;16.65;8.40;;;;;;;;;;10392396;28;20037;-80
2023/03/13 17:05:40;;;;;;;117.20;52.92;;;;;;;;;;10396588;28;20034;-80
2023/03/13 17:10:42;;;;;;;40.28;16.23;;;;;;;;;;10400374;28;20063;-79
2023/03/13 17:15:43;;;;;;;99.60;42.42;;;;;;;;;;10426467;28;20064;-81
2023/03/13 17:20:44;;;;;;;75.00;30.35;;;;;;;;;;10428145;28;20053;-80
2023/03/13 17:25:46;;;;;;;90.10;35.70;;;;;;;;;;10425462;28;20567;-82
2023/03/13 17:30:47;;;;;;;102.37;38.33;;;;;;;;;;10405150;28;20624;-80
2023/03/13 17:35:48;;;;;;;125.70;44.70;;;;;;;;;;10423714;28;20037;-81
2023/03/13 17:40:49;;;;;;;202.20;65.60;;;;;;;;;;10430885;28;20071;-82
2023/03/13 17:45:50;;;;;;;117.53;43.00;;;;;;;;;;10404381;28;20095;-83
2023/03/13 17:50:51;;;;;;;71.60;26.75;;;;;;;;;;10419575;28;20098;-83
2023/03/13 17:55:52;;;;;;;97.73;37.30;;;;;;;;;;10423404;28;20789;-82
2023/03/13 18:00:53;;;;;;;138.85;48.40;;;;;;;;;;10430544;28;20103;-82
2023/03/13 18:05:54;;;;;;;111.25;35.95;;;;;;;;;;10430175;28;20082;-84
2023/03/13 18:10:55;;;;;;;80.05;29.67;;;;;;;;;;10408725;28;20036;-83
2023/03/13 18:15:56;;;;;;;78.13;27.95;;;;;;;;;;10423891;28;20033;-81
2023/03/13 18:20:57;;;;;;;104.53;35.90;;;;;;;;;;10444319;28;20053;-81
2023/03/13 18:25:58;;;;;;;60.47;21.33;;;;;;;;;;10428033;28;20107;-80
2023/03/13 18:30:59;;;;;;;70.32;23.48;;;;;;;;;;10412940;28;20067;-81
2023/03/13 18:36:00;;;;;;;75.87;28.40;;;;;;;;;;10438701;28;20435;-79
2023/03/13 18:41:01;;;;;;;41.33;16.70;;;;;;;;;;10423320;23;20108;-81
2023/03/13 18:46:02;;;;;;;48.90;17.63;;;;;;;;;;10403150;28;20029;-84
2023/03/13 18:51:03;;;;;;;43.00;17.00;;;;;;;;;;10402029;28;20110;-81
2023/03/13 18:56:25;;;;;;;38.10;14.50;;;;;;;;;;10402580;28;20091;-81
2023/03/13 19:01:27;;;;;;;44.33;15.80;;;;;;;;;;10399706;28;20048;-82
2023/03/13 19:06:32;;;;;;;60.43;29.83;;;;;;;;;;10407474;28;20037;-80
2023/03/13 19:11:33;;;;;;;35.33;13.67;;;;;;;;;;10437344;28;20492;-82
2023/03/13 19:16:42;;;;;;;37.50;15.60;;;;;;;;;;10438450;28;20082;-81
2023/03/13 19:21:43;;;;;;;40.63;16.33;;;;;;;;;;10439377;28;20044;-83
2023/03/13 19:26:44;;;;;;;28.93;12.37;;;;;;;;;;10439760;28;20079;-81
2023/03/13 19:31:45;;;;;;;24.60;10.77;;;;;;;;;;10441724;28;20025;-82
2023/03/13 19:36:48;;;;;;;29.67;12.90;;;;;;;;;;10441130;28;20041;-80
2023/03/13 19:41:49;;;;;;;48.57;19.73;;;;;;;;;;10440376;28;20052;-80
2023/03/13 19:46:51;;;;;;;51.77;19.50;;;;;;;;;;10439856;28;20040;-81
2023/03/13 19:51:52;;;;;;;35.67;14.77;;;;;;;;;;10441483;28;20032;-79
2023/03/13 19:56:53;;;;;;;30.90;11.70;;;;;;;;;;10432727;23;20056;-81
2023/03/13 20:01:54;;;;;;;42.77;15.63;;;;;;;;;;10436291;23;20102;-82
2023/03/13 20:06:55;;;;;;;39.67;13.17;;;;;;;;;;10462659;28;20420;-81
2023/03/13 20:11:56;;;;;;;43.10;16.37;;;;;;;;;;10461040;28;20140;-81
2023/03/13 20:16:57;;;;;;;28.90;9.93;;;;;;;;;;10450655;28;20399;-82
2023/03/13 20:22:02;;;;;;;19.83;8.95;;;;;;;;;;10477040;28;20036;-78
2023/03/13 20:27:03;;;;;;;21.58;8.20;;;;;;;;;;10470502;28;20469;-81
2023/03/13 20:32:04;;;;;;;22.90;9.32;;;;;;;;;;10456525;28;20029;-82
2023/03/13 20:37:05;;;;;;;29.80;9.40;;;;;;;;;;10445650;28;20045;-80
2023/03/13 20:42:07;;;;;;;23.20;9.98;;;;;;;;;;10461127;28;20029;-81
2023/03/13 20:47:08;;;;;;;29.20;10.95;;;;;;;;;;10472019;28;20415;-82
2023/03/13 20:52:09;;;;;;;14.80;6.07;;;;;;;;;;10462163;28;20036;-79
2023/03/13 20:57:10;;;;;;;13.98;6.95;;;;;;;;;;10459462;28;20472;-80
2023/03/13 21:02:11;;;;;;;13.38;5.75;;;;;;;;;;10480161;28;20052;-80
2023/03/13 21:07:12;;;;;;;12.00;5.10;;;;;;;;;;10431754;28;20034;-82
2023/03/13 21:12:14;;;;;;;15.85;7.22;;;;;;;;;;10429226;28;20105;-82
2023/03/13 21:17:15;;;;;;;17.90;7.65;;;;;;;;;;10442272;28;20032;-80
2023/03/13 21:22:17;;;;;;;12.77;5.78;;;;;;;;;;10439771;28;20120;-81
2023/03/13 21:27:18;;;;;;;20.45;9.35;;;;;;;;;;10407355;28;20140;-79
2023/03/13 21:32:19;;;;;;;18.10;5.85;;;;;;;;;;10410028;28;20029;-81
2023/03/13 21:37:20;;;;;;;11.20;4.57;;;;;;;;;;10406357;28;20034;-80
2023/03/13 21:42:21;;;;;;;12.15;5.50;;;;;;;;;;10426832;28;20033;-80
2023/03/13 21:47:25;;;;;;;10.65;5.65;;;;;;;;;;10416072;28;20021;-82
2023/03/13 21:52:26;;;;;;;14.18;6.72;;;;;;;;;;10406363;28;20030;-80
2023/03/13 21:57:27;;;;;;;13.80;6.05;;;;;;;;;;10405780;28;20045;-80
2023/03/13 22:02:28;;;;;;;12.48;6.80;;;;;;;;;;10415814;28;20607;-80
2023/03/13 22:07:30;;;;;;;10.43;5.18;;;;;;;;;;10405563;28;20052;-80
2023/03/13 22:12:31;;;;;;;9.40;4.70;;;;;;;;;;10405608;28;20037;-80
2023/03/13 22:17:32;;;;;;;11.70;4.97;;;;;;;;;;10409838;28;20037;-82
2023/03/13 22:22:33;;;;;;;13.80;6.43;;;;;;;;;;10405068;28;20473;-82
2023/03/13 22:27:34;;;;;;;9.15;4.43;;;;;;;;;;10425412;28;20488;-82
2023/03/13 22:32:35;;;;;;;15.70;6.20;;;;;;;;;;10438412;28;20037;-81
2023/03/13 22:37:36;;;;;;;12.82;6.13;;;;;;;;;;10475021;28;20037;-81
2023/03/13 22:42:37;;;;;;;16.33;7.10;;;;;;;;;;10475928;28;20127;-82
2023/03/13 22:47:38;;;;;;;14.00;6.23;;;;;;;;;;10467236;28;20028;-80
2023/03/13 22:52:39;;;;;;;10.63;5.63;;;;;;;;;;10490870;23;20114;-80
2023/03/13 22:57:40;;;;;;;12.63;4.80;;;;;;;;;;10449500;28;20659;-80
2023/03/13 23:02:41;;;;;;;10.23;4.97;;;;;;;;;;10454755;28;20069;-80
2023/03/13 23:07:43;;;;;;;10.70;5.25;;;;;;;;;;10459026;28;20097;-82
2023/03/13 23:12:44;;;;;;;15.02;7.20;;;;;;;;;;10448979;28;20716;-81
2023/03/13 23:17:45;;;;;;;46.03;19.13;;;;;;;;;;10437146;28;20036;-80
2023/03/13 23:22:48;;;;;;;44.25;19.48;;;;;;;;;;10448199;28;20401;-80
2023/03/13 23:27:49;;;;;;;59.40;23.67;;;;;;;;;;10455184;28;20094;-83
2023/03/13 23:32:50;;;;;;;57.30;27.03;;;;;;;;;;10450259;28;20389;-79
2023/03/13 23:37:54;;;;;;;30.83;11.43;;;;;;;;;;10447721;28;20045;-80
2023/03/13 23:42:55;;;;;;;31.27;12.60;;;;;;;;;;10457313;28;20056;-80
2023/03/13 23:47:57;;;;;;;25.40;12.70;;;;;;;;;;10447236;28;20573;-80
2023/03/13 23:52:58;;;;;;;13.50;7.90;;;;;;;;;;10455875;28;20139;-79
2023/03/13 23:57:59;;;;;;;18.70;11.67;;;;;;;;;;10436429;28;20045;-81
